sensor_id;sensor_type;location;lat;lon;timestamp;pressure;altitude;pressure_sealevel;temperature;humidity
75923;BME280;64602;47.542;19.090;2023-02-26T07:50:32;99479.28;;;3.77;66.71
75923;BME280;64602;47.542;19.090;2023-02-26T07:55:34;99452.28;;;3.60;67.08
75923;BME280;64602;47.542;19.090;2023-02-26T08:00:36;99461.66;;;3.81;66.80
75923;BME280;64602;47.542;19.090;2023-02-26T08:05:38;99465.66;;;4.02;66.28
75923;BME280;64602;47.542;19.090;2023-02-26T08:10:41;99485.97;;;4.10;66.11
75923;BME280;64602;47.542;19.090;2023-02-26T08:15:43;99477.81;;;4.16;65.88
75923;BME280;64602;47.542;19.090;2023-02-26T08:20:45;99460.53;;;4.12;65.57
75923;BME280;64602;47.542;19.090;2023-02-26T08:25:47;99469.66;;;4.35;65.31
75923;BME280;64602;47.542;19.090;2023-02-26T08:30:54;99488.81;;;4.50;65.01
75923;BME280;64602;47.542;19.090;2023-02-26T08:35:56;99501.75;;;4.41;64.85
75923;BME280;64602;47.542;19.090;2023-02-26T08:40:59;99493.69;;;4.41;64.86
75923;BME280;64602;47.542;19.090;2023-02-26T08:46:02;99486.00;;;4.33;65.18
75923;BME280;64602;47.542;19.090;2023-02-26T08:51:04;99499.53;;;4.26;65.05
75923;BME280;64602;47.542;19.090;2023-02-26T08:56:06;99509.22;;;4.39;64.84
75923;BME280;64602;47.542;19.090;2023-02-26T09:01:09;99510.88;;;4.28;64.79
75923;BME280;64602;47.542;19.090;2023-02-26T09:06:11;99523.50;;;4.52;64.46
75923;BME280;64602;47.542;19.090;2023-02-26T09:11:13;99549.44;;;4.69;63.70
75923;BME280;64602;47.542;19.090;2023-02-26T09:16:15;99542.50;;;4.85;62.99
75923;BME280;64602;47.542;19.090;2023-02-26T09:21:17;99532.94;;;4.89;62.62
75923;BME280;64602;47.542;19.090;2023-02-26T09:26:20;99543.41;;;5.14;62.53
75923;BME280;64602;47.542;19.090;2023-02-26T09:31:22;99545.13;;;5.32;60.24
75923;BME280;64602;47.542;19.090;2023-02-26T09:36:24;99547.28;;;5.59;58.83
75923;BME280;64602;47.542;19.090;2023-02-26T09:41:30;99552.94;;;5.74;57.81
75923;BME280;64602;47.542;19.090;2023-02-26T09:52:07;99566.34;;;6.15;56.02
75923;BME280;64602;47.542;19.090;2023-02-26T09:57:21;99552.97;;;6.37;55.52
75923;BME280;64602;47.542;19.090;2023-02-26T10:02:39;99566.13;;;6.50;53.36
75923;BME280;64602;47.542;19.090;2023-02-26T10:07:56;99551.84;;;6.50;52.88
75923;BME280;64602;47.542;19.090;2023-02-26T10:13:00;99573.94;;;6.85;52.56
75923;BME280;64602;47.542;19.090;2023-02-26T10:18:17;99578.12;;;7.15;51.96
75923;BME280;64602;47.542;19.090;2023-02-26T10:23:38;99609.72;;;7.37;51.43
75923;BME280;64602;47.542;19.090;2023-02-26T10:39:38;99644.38;;;7.45;51.28
75923;BME280;64602;47.542;19.090;2023-02-26T10:44:54;99652.25;;;7.90;50.53
75923;BME280;64602;47.542;19.090;2023-02-26T10:50:03;99641.56;;;8.50;48.97
75923;BME280;64602;47.542;19.090;2023-02-26T10:55:28;99649.41;;;8.84;48.29
75923;BME280;64602;47.542;19.090;2023-02-26T11:00:32;99658.56;;;10.41;45.19
75923;BME280;64602;47.542;19.090;2023-02-26T11:05:36;99652.88;;;10.53;44.42
75923;BME280;64602;47.542;19.090;2023-02-26T11:10:47;99669.78;;;12.02;40.79
75923;BME280;64602;47.542;19.090;2023-02-26T11:15:53;99683.03;;;15.78;34.28
75923;BME280;64602;47.542;19.090;2023-02-26T11:20:58;99671.59;;;11.31;41.32
75923;BME280;64602;47.542;19.090;2023-02-26T11:26:07;99666.50;;;9.84;44.59
75923;BME280;64602;47.542;19.090;2023-02-26T11:31:12;99675.97;;;9.29;46.47
75923;BME280;64602;47.542;19.090;2023-02-26T11:36:21;99670.31;;;9.31;46.29
75923;BME280;64602;47.542;19.090;2023-02-26T11:41:26;99686.09;;;9.07;47.36
75923;BME280;64602;47.542;19.090;2023-02-26T11:46:29;99677.78;;;9.61;45.99
75923;BME280;64602;47.542;19.090;2023-02-26T11:51:32;99692.59;;;10.01;44.58
75923;BME280;64602;47.542;19.090;2023-02-26T11:56:37;99682.59;;;10.17;44.82
75923;BME280;64602;47.542;19.090;2023-02-26T12:01:41;99695.34;;;10.16;45.24
75923;BME280;64602;47.542;19.090;2023-02-26T12:06:45;99692.75;;;9.69;46.25
75923;BME280;64602;47.542;19.090;2023-02-26T12:17:15;99698.50;;;10.86;43.87
75923;BME280;64602;47.542;19.090;2023-02-26T12:28:12;99722.28;;;12.91;39.12
75923;BME280;64602;47.542;19.090;2023-02-26T12:44:12;99721.88;;;10.98;41.90
75923;BME280;64602;47.542;19.090;2023-02-26T12:54:56;99735.06;;;10.43;43.53
75923;BME280;64602;47.542;19.090;2023-02-26T13:10:53;99740.19;;;9.02;46.15
75923;BME280;64602;47.542;19.090;2023-02-26T13:16:48;99741.94;;;8.86;47.19
75923;BME280;64602;47.542;19.090;2023-02-26T13:27:10;99771.41;;;8.55;47.87
75923;BME280;64602;47.542;19.090;2023-02-26T13:37:38;99780.09;;;7.57;51.59
75923;BME280;64602;47.542;19.090;2023-02-26T13:42:55;99773.66;;;7.24;51.59
75923;BME280;64602;47.542;19.090;2023-02-26T13:48:07;99774.22;;;7.26;50.75
75923;BME280;64602;47.542;19.090;2023-02-26T13:58:33;99780.28;;;7.17;50.69
75923;BME280;64602;47.542;19.090;2023-02-26T14:08:50;99798.41;;;7.04;51.40
75923;BME280;64602;47.542;19.090;2023-02-26T14:19:41;99810.63;;;6.78;52.77
75923;BME280;64602;47.542;19.090;2023-02-26T14:24:51;99804.38;;;6.61;53.46
75923;BME280;64602;47.542;19.090;2023-02-26T14:30:00;99814.69;;;6.52;54.06
75923;BME280;64602;47.542;19.090;2023-02-26T14:35:11;99829.25;;;6.51;54.46
75923;BME280;64602;47.542;19.090;2023-02-26T14:40:19;99827.88;;;6.37;54.37
75923;BME280;64602;47.542;19.090;2023-02-26T14:45:27;99833.41;;;6.18;54.60
75923;BME280;64602;47.542;19.090;2023-02-26T14:50:49;99835.41;;;6.23;54.75
75923;BME280;64602;47.542;19.090;2023-02-26T15:23:02;99869.47;;;5.82;53.00
75923;BME280;64602;47.542;19.090;2023-02-26T15:28:14;99886.81;;;5.86;53.34
75923;BME280;64602;47.542;19.090;2023-02-26T15:33:23;99900.03;;;5.88;53.66
75923;BME280;64602;47.542;19.090;2023-02-26T15:38:25;99904.97;;;5.91;54.18
75923;BME280;64602;47.542;19.090;2023-02-26T15:43:28;99907.28;;;5.87;54.37
75923;BME280;64602;47.542;19.090;2023-02-26T15:48:37;99923.03;;;6.02;54.59
75923;BME280;64602;47.542;19.090;2023-02-26T15:53:51;99916.00;;;6.01;54.08
75923;BME280;64602;47.542;19.090;2023-02-26T15:59:00;99925.75;;;6.02;53.98
75923;BME280;64602;47.542;19.090;2023-02-26T16:04:09;99929.28;;;5.84;53.43
75923;BME280;64602;47.542;19.090;2023-02-26T16:09:19;99942.03;;;5.77;53.70
75923;BME280;64602;47.542;19.090;2023-02-26T16:14:24;99940.53;;;5.81;53.67
75923;BME280;64602;47.542;19.090;2023-02-26T16:19:37;99961.63;;;5.84;53.80
75923;BME280;64602;47.542;19.090;2023-02-26T16:24:42;99957.59;;;5.75;53.82
75923;BME280;64602;47.542;19.090;2023-02-26T16:29:53;99960.56;;;5.73;54.00
75923;BME280;64602;47.542;19.090;2023-02-26T16:34:59;99969.66;;;5.72;54.02
75923;BME280;64602;47.542;19.090;2023-02-26T16:50:39;100003.00;;;5.60;54.75
75923;BME280;64602;47.542;19.090;2023-02-26T16:55:46;100007.19;;;5.55;54.94
75923;BME280;64602;47.542;19.090;2023-02-26T17:01:02;100017.94;;;5.55;55.21
75923;BME280;64602;47.542;19.090;2023-02-26T17:06:11;100007.00;;;5.39;55.35
75923;BME280;64602;47.542;19.090;2023-02-26T17:11:22;100026.81;;;5.44;55.44
75923;BME280;64602;47.542;19.090;2023-02-26T17:16:26;100029.94;;;5.41;55.74
75923;BME280;64602;47.542;19.090;2023-02-26T17:21:30;100020.97;;;5.29;56.23
75923;BME280;64602;47.542;19.090;2023-02-26T17:26:32;100038.47;;;5.38;56.51
75923;BME280;64602;47.542;19.090;2023-02-26T17:31:34;100042.44;;;5.35;56.71
75923;BME280;64602;47.542;19.090;2023-02-26T17:36:36;100043.56;;;5.28;56.97
75923;BME280;64602;47.542;19.090;2023-02-26T17:41:42;100044.63;;;5.27;57.45
75923;BME280;64602;47.542;19.090;2023-02-26T17:46:45;100030.50;;;5.13;57.80
75923;BME280;64602;47.542;19.090;2023-02-26T17:51:47;100040.00;;;5.16;57.99
75923;BME280;64602;47.542;19.090;2023-02-26T17:56:49;100037.37;;;5.09;58.03
75923;BME280;64602;47.542;19.090;2023-02-26T18:01:51;100045.22;;;5.10;58.39
75923;BME280;64602;47.542;19.090;2023-02-26T18:06:54;100040.97;;;5.03;58.55
75923;BME280;64602;47.542;19.090;2023-02-26T18:11:56;100046.63;;;4.95;59.00
75923;BME280;64602;47.542;19.090;2023-02-26T18:16:58;100046.31;;;4.84;59.64
75923;BME280;64602;47.542;19.090;2023-02-26T18:22:01;100035.12;;;4.69;60.18
75923;BME280;64602;47.542;19.090;2023-02-26T18:27:03;100049.31;;;4.76;60.38
75923;BME280;64602;47.542;19.090;2023-02-26T18:32:05;100053.19;;;4.80;60.29
75923;BME280;64602;47.542;19.090;2023-02-26T18:37:17;100043.53;;;4.72;59.86
75923;BME280;64602;47.542;19.090;2023-02-26T18:42:24;100058.34;;;4.82;60.03
75923;BME280;64602;47.542;19.090;2023-02-26T18:47:27;100076.72;;;4.85;59.68
75923;BME280;64602;47.542;19.090;2023-02-26T18:52:29;100072.41;;;4.84;59.40
75923;BME280;64602;47.542;19.090;2023-02-26T18:57:31;100081.28;;;4.84;59.71
75923;BME280;64602;47.542;19.090;2023-02-26T19:02:34;100065.00;;;4.79;59.56
75923;BME280;64602;47.542;19.090;2023-02-26T19:07:37;100064.19;;;4.79;59.61
75923;BME280;64602;47.542;19.090;2023-02-26T19:12:40;100067.03;;;4.84;59.21
75923;BME280;64602;47.542;19.090;2023-02-26T19:17:42;100100.41;;;4.95;59.04
75923;BME280;64602;47.542;19.090;2023-02-26T19:22:44;100101.00;;;4.97;58.98
75923;BME280;64602;47.542;19.090;2023-02-26T19:27:47;100105.37;;;4.98;59.18
75923;BME280;64602;47.542;19.090;2023-02-26T19:32:50;100110.66;;;4.86;59.43
75923;BME280;64602;47.542;19.090;2023-02-26T19:37:53;100119.06;;;4.89;59.80
75923;BME280;64602;47.542;19.090;2023-02-26T19:42:55;100111.06;;;4.83;59.80
75923;BME280;64602;47.542;19.090;2023-02-26T19:47:57;100125.28;;;4.90;60.02
75923;BME280;64602;47.542;19.090;2023-02-26T19:52:59;100136.69;;;4.85;60.66
75923;BME280;64602;47.542;19.090;2023-02-26T19:58:02;100122.31;;;4.73;60.47
75923;BME280;64602;47.542;19.090;2023-02-26T20:03:04;100135.69;;;4.61;60.92
75923;BME280;64602;47.542;19.090;2023-02-26T20:08:06;100151.59;;;4.56;61.34
75923;BME280;64602;47.542;19.090;2023-02-26T20:13:08;100161.16;;;4.52;61.55
75923;BME280;64602;47.542;19.090;2023-02-26T20:18:10;100151.06;;;4.47;61.54
75923;BME280;64602;47.542;19.090;2023-02-26T20:23:12;100162.25;;;4.44;61.63
75923;BME280;64602;47.542;19.090;2023-02-26T20:28:16;100179.19;;;4.45;61.66
75923;BME280;64602;47.542;19.090;2023-02-26T20:33:19;100170.13;;;4.39;61.75
75923;BME280;64602;47.542;19.090;2023-02-26T20:38:25;100191.62;;;4.39;61.17
75923;BME280;64602;47.542;19.090;2023-02-26T20:43:28;100193.56;;;4.32;60.77
75923;BME280;64602;47.542;19.090;2023-02-26T20:48:30;100200.22;;;4.23;59.61
75923;BME280;64602;47.542;19.090;2023-02-26T20:53:33;100195.47;;;4.18;57.73
75923;BME280;64602;47.542;19.090;2023-02-26T20:58:36;100216.16;;;4.18;54.62
75923;BME280;64602;47.542;19.090;2023-02-26T21:03:40;100233.97;;;4.05;53.46
75923;BME280;64602;47.542;19.090;2023-02-26T21:08:42;100235.44;;;3.95;52.68
75923;BME280;64602;47.542;19.090;2023-02-26T21:13:44;100235.69;;;3.87;52.34
75923;BME280;64602;47.542;19.090;2023-02-26T21:18:47;100229.72;;;3.71;51.73
75923;BME280;64602;47.542;19.090;2023-02-26T21:23:49;100270.59;;;3.73;51.59
75923;BME280;64602;47.542;19.090;2023-02-26T21:28:53;100256.81;;;3.56;50.38
75923;BME280;64602;47.542;19.090;2023-02-26T21:33:55;100276.00;;;3.60;50.23
75923;BME280;64602;47.542;19.090;2023-02-26T21:38:58;100268.59;;;3.42;50.10
75923;BME280;64602;47.542;19.090;2023-02-26T21:44:00;100264.06;;;3.42;50.74
75923;BME280;64602;47.542;19.090;2023-02-26T21:49:02;100266.56;;;3.31;50.30
75923;BME280;64602;47.542;19.090;2023-02-26T21:54:04;100284.06;;;3.20;49.98
75923;BME280;64602;47.542;19.090;2023-02-26T21:59:06;100286.78;;;3.13;49.95
